Aérodrome :
LOGIN :

S'inscrire | Disclaimer

   EN    FR    IT 

 










Légende :    VFR   VFR Marginal   IFR   IFR Intensif   IFR Très Intensif
Visi : 
Plafond : 
>= 8 km
>= 3000ft
5 à 8 km
1000 à 3000 ft
1500m à 5 km
500 à 1000 ft
800 à 1500m
200 à 500 ft
< 800m
< 200 ft
Symboles :   Orages  Brouillard  Fortes neiges  Fortes précipitations  Vent > 20 kt
SIGMETs :   Divers  Orages  Givrage  Turbulence  Onde Orograph.  Cendres Volcan.






- Altitude de l'aérodrome : 1306 ft
- Code IATA : ACH


LSZR - Alten Rhein

DERNIER METAR :
  • 171820Z AUTO VRB02KT 6000 OVC027 01/01 Q1022 RESN

METARs EXPIRÉS :
  • 171750Z AUTO VRB02KT 4300 -SN FEW019 OVC026 00/00 Q1022
  • 171720Z AUTO 10004KT 4500 -SN SCT019 SCT021 OVC025 01/01 Q1021
  • 171650Z AUTO 09003KT 5000 -SN SCT019 BKN021 OVC027 01/01 Q1021
  • 171620Z AUTO 10005KT 6000 BKN019 01/01 Q1020 RESN

TAF TAF LSZR
Valide du 17 à 15h jusqu'au 18 à 00h UTC


171425Z 1715/1724 VRB04KT 6000 FEW010 SCT015 BKN025
PROB40
TEMPO 1715/1721 2500 -SN BKN007
ATIS : +41 71 858 51 66



MET'MAP, la Météo Aéronautique d'un coup d'oeil ! - Copyright ORBIFLY Décembre 2007 - Disclaimer

ORBIFLY MET'MAP TEAM :

Programmation & Développement : Alexandra Zaïnal
Sur une idée originale de : Baudouin d'Aumeries
Assistance à la programmation : Marc-Olivier Méhu
Soutien technique & logistique : Manuel Goepfert

Contact : metmap@orbifly.com




SOURCES & CREDITS :

   NOAA